Time;durP1;ratioP1;P1;durP2;ratioP2;P2;SDS_P1;SDS_P2;PMS_P1;PMS_P2;Temp;Humidity;BMP_temperature;BMP_pressure;BME280_temperature;BME280_humidity;BME280_pressure;Samples;Min_cycle;Max_cycle;Signal;HPM_P1;HPM_P2
2023/05/23 00:00:59;;;;;;;3.88;1.90;;;;;;;18.92;67.50;101387.16;5102472;28;20056;-73
2023/05/23 00:03:25;;;;;;;6.47;2.00;;;;;;;18.98;67.33;101394.38;5084155;28;20114;-73
2023/05/23 00:05:51;;;;;;;3.65;2.15;;;;;;;18.90;66.96;101373.72;5101751;28;20024;-72
2023/05/23 00:08:17;;;;;;;7.68;2.08;;;;;;;19.02;67.08;101390.09;5065216;28;20039;-73
2023/05/23 00:10:43;;;;;;;3.67;1.90;;;;;;;18.95;67.23;101390.22;5100988;28;20039;-73
2023/05/23 00:13:11;;;;;;;4.38;2.00;;;;;;;19.01;67.00;101388.44;5102960;28;20019;-74
2023/05/23 00:15:40;;;;;;;5.70;2.00;;;;;;;18.98;67.02;101386.19;5085637;28;20387;-72
2023/05/23 00:18:07;;;;;;;4.60;2.30;;;;;;;18.98;67.04;101386.19;5085437;28;20043;-72
2023/05/23 00:20:35;;;;;;;4.28;2.20;;;;;;;18.94;67.11;101380.38;5103522;28;20039;-73
2023/05/23 00:23:02;;;;;;;9.20;2.08;;;;;;;18.55;67.13;101330.16;5085274;28;20081;-73
2023/05/23 00:25:33;;;;;;;5.82;2.33;;;;;;;18.91;66.80;101378.13;5067306;28;20039;-73
2023/05/23 00:28:03;;;;;;;5.97;2.20;;;;;;;18.96;67.05;101378.22;5067832;28;20043;-73
2023/05/23 00:30:32;;;;;;;6.28;2.17;;;;;;;18.95;66.96;101384.75;5102277;28;20028;-73
2023/05/23 00:32:59;;;;;;;6.47;2.08;;;;;;;18.89;66.92;101376.72;5067692;28;20552;-73
2023/05/23 00:35:25;;;;;;;6.88;2.30;;;;;;;18.80;66.97;101367.25;5067434;28;20028;-72
2023/05/23 00:37:50;;;;;;;3.97;2.20;;;;;;;18.78;66.78;101365.59;5083480;28;20063;-73
2023/05/23 00:40:19;;;;;;;5.63;2.28;;;;;;;18.92;66.69;101376.22;5102175;28;20035;-73
2023/05/23 00:42:45;;;;;;;8.50;2.15;;;;;;;18.92;66.38;101377.06;5101055;28;20074;-72
2023/05/23 00:45:11;;;;;;;5.13;2.38;;;;;;;18.81;66.38;101353.38;5101053;28;20090;-73
2023/05/23 00:47:38;;;;;;;5.03;2.10;;;;;;;18.96;66.38;101369.22;5083486;28;20483;-72
2023/05/23 00:50:07;;;;;;;7.32;2.13;;;;;;;18.96;66.49;101375.50;5081448;28;20020;-73
2023/05/23 00:52:33;;;;;;;9.18;2.20;;;;;;;18.96;66.36;101377.41;5066779;28;20042;-72
2023/05/23 00:54:59;;;;;;;4.70;1.88;;;;;;;18.89;66.83;101379.44;5065869;28;20414;-73
2023/05/23 00:57:24;;;;;;;6.82;2.50;;;;;;;18.87;66.62;101376.13;5063536;28;20039;-74
2023/05/23 00:59:50;;;;;;;6.25;2.65;;;;;;;18.87;66.73;101376.13;5066254;28;20059;-73
2023/05/23 01:02:16;;;;;;;4.47;1.88;;;;;;;18.75;66.84;101360.63;5083012;28;20039;-73
2023/05/23 01:04:42;;;;;;;4.80;2.50;;;;;;;18.65;66.95;101341.28;5083131;28;20027;-73
2023/05/23 01:07:09;;;;;;;4.88;2.10;;;;;;;18.73;66.95;101359.19;5066776;28;20522;-73
2023/05/23 01:09:34;;;;;;;9.48;2.40;;;;;;;18.76;66.53;101370.44;5066812;28;20034;-73
2023/05/23 01:12:13;;;;;;;4.82;2.05;;;;;;;18.76;66.14;101365.00;5067042;28;20032;-73
2023/05/23 01:14:47;;;;;;;5.35;2.22;;;;;;;18.75;65.88;101365.25;5101365;28;20035;-72
2023/05/23 01:17:25;;;;;;;8.38;2.42;;;;;;;18.53;65.96;101335.84;5083354;28;20036;-73
2023/05/23 01:20:06;;;;;;;5.50;2.40;;;;;;;18.62;65.45;101347.22;5100953;28;20082;-72
2023/05/23 01:22:51;;;;;;;3.28;2.00;;;;;;;18.68;65.05;101362.63;5101207;28;20023;-72
2023/05/23 01:25:27;;;;;;;4.97;2.03;;;;;;;18.66;64.85;101348.38;5085965;28;20028;-73
2023/05/23 01:27:56;;;;;;;7.15;2.10;;;;;;;18.65;64.88;101354.91;5083088;28;20066;-73
2023/05/23 01:30:23;;;;;;;5.22;1.90;;;;;;;18.66;64.70;101361.19;5082722;28;20459;-73
2023/05/23 01:32:53;;;;;;;5.78;2.10;;;;;;;18.52;64.58;101331.47;5083577;28;20456;-73
2023/05/23 01:35:24;;;;;;;7.32;2.20;;;;;;;18.68;64.30;101359.06;5100835;28;20042;-72
2023/05/23 01:37:50;;;;;;;4.93;1.90;;;;;;;18.65;64.19;101356.81;5084082;28;20479;-73
2023/05/23 01:40:15;;;;;;;4.53;2.10;;;;;;;18.65;64.13;101354.91;5081801;28;20678;-73
2023/05/23 01:42:41;;;;;;;4.25;2.20;;;;;;;18.57;63.77;101340.81;5098906;28;20515;-73
2023/05/23 01:45:07;;;;;;;4.72;2.30;;;;;;;18.64;63.61;101342.38;5082748;28;20028;-73
2023/05/23 01:47:34;;;;;;;5.68;2.10;;;;;;;18.58;63.54;101343.31;5088017;28;20047;-73
2023/05/23 01:50:01;;;;;;;6.15;2.30;;;;;;;18.18;63.10;101278.69;5100487;28;20028;-73
2023/05/23 01:52:27;;;;;;;3.10;2.00;;;;;;;18.60;62.68;101338.44;5098561;28;20028;-73
2023/05/23 01:54:54;;;;;;;6.80;2.30;;;;;;;18.62;62.42;101325.41;5082587;28;20084;-73
2023/05/23 01:57:21;;;;;;;4.65;2.00;;;;;;;18.60;62.17;101338.44;5082872;28;20020;-72
2023/05/23 01:59:47;;;;;;;3.75;1.95;;;;;;;18.60;62.05;101329.44;5081732;28;20077;-72
2023/05/23 02:02:13;;;;;;;5.07;2.15;;;;;;;18.60;62.08;101332.16;5065669;28;20545;-72
2023/05/23 02:04:38;;;;;;;3.72;1.92;;;;;;;18.58;61.70;101321.50;5048653;28;20073;-72
2023/05/23 02:07:04;;;;;;;5.28;1.95;;;;;;;18.54;61.79;101314.88;5082645;28;20101;-73
2023/05/23 02:09:30;;;;;;;6.15;2.45;;;;;;;18.50;61.50;101314.50;5083140;28;20028;-73
2023/05/23 02:11:55;;;;;;;5.38;2.10;;;;;;;18.51;61.46;101304.47;5082434;28;20067;-72
2023/05/23 02:14:22;;;;;;;4.93;2.20;;;;;;;18.47;61.53;101303.28;5082787;28;20030;-72
2023/05/23 02:16:48;;;;;;;3.60;2.08;;;;;;;18.37;61.29;101295.69;5082125;28;20487;-73
2023/05/23 02:19:13;;;;;;;4.35;2.03;;;;;;;18.40;61.24;101300.66;5065331;28;20038;-73
2023/05/23 02:21:39;;;;;;;4.93;2.10;;;;;;;18.38;61.00;101297.38;5081981;28;20020;-72
2023/05/23 02:24:04;;;;;;;4.15;2.20;;;;;;;18.38;60.65;101302.00;5065090;28;20028;-73
2023/05/23 02:26:30;;;;;;;3.83;1.70;;;;;;;18.28;60.51;101268.00;5100104;28;20024;-73
2023/05/23 02:28:55;;;;;;;6.25;2.22;;;;;;;18.43;60.32;101285.75;5081204;28;20032;-73
2023/05/23 02:31:21;;;;;;;4.22;2.00;;;;;;;18.36;60.51;101274.16;5048547;28;20028;-72
2023/05/23 02:33:46;;;;;;;4.32;2.10;;;;;;;18.37;60.73;101279.34;5064766;28;20067;-72
2023/05/23 02:36:11;;;;;;;4.35;1.90;;;;;;;18.36;60.73;101272.25;5081522;28;20058;-73
2023/05/23 02:38:37;;;;;;;6.85;2.15;;;;;;;18.34;60.80;101263.47;5082274;28;20174;-73
2023/05/23 02:41:03;;;;;;;3.10;2.03;;;;;;;18.41;60.99;101271.53;5099810;28;20020;-73
2023/05/23 02:43:29;;;;;;;6.90;2.08;;;;;;;18.28;61.10;101248.13;5081177;28;20036;-73
2023/05/23 02:45:54;;;;;;;4.93;1.90;;;;;;;18.38;61.21;101266.59;5081574;28;20412;-72
2023/05/23 02:48:19;;;;;;;3.97;2.13;;;;;;;18.36;61.54;101264.06;5098490;28;20035;-73
2023/05/23 02:50:45;;;;;;;6.35;2.17;;;;;;;18.36;61.72;101263.25;5077422;28;20091;-73
2023/05/23 02:53:10;;;;;;;6.65;2.08;;;;;;;18.21;61.87;101233.78;5079319;28;20043;-73
2023/05/23 02:55:37;;;;;;;5.82;2.20;;;;;;;18.36;61.96;101255.09;5048123;28;20036;-72
2023/05/23 02:58:04;;;;;;;4.07;2.22;;;;;;;18.36;62.34;101249.63;5095579;28;20526;-72
2023/05/23 03:00:31;;;;;;;5.13;1.92;;;;;;;18.37;62.26;101248.56;5086769;28;20422;-73
2023/05/23 03:02:57;;;;;;;3.10;2.10;;;;;;;18.35;62.45;101243.34;5099738;28;20293;-73
2023/05/23 03:05:22;;;;;;;5.28;2.13;;;;;;;18.34;62.22;101241.69;5081218;28;20028;-73
2023/05/23 03:07:47;;;;;;;5.25;2.15;;;;;;;18.37;62.39;101241.19;5064580;28;20024;-73
2023/05/23 03:10:13;;;;;;;7.63;1.98;;;;;;;18.39;62.18;101240.97;5081831;28;20070;-72
2023/05/23 03:12:38;;;;;;;4.47;2.25;;;;;;;18.42;62.07;101232.34;5099313;28;20085;-73
2023/05/23 03:15:04;;;;;;;3.85;1.90;;;;;;;18.34;62.05;101225.34;5080986;28;20031;-73
2023/05/23 03:17:30;;;;;;;4.68;2.40;;;;;;;18.35;62.22;101218.84;5081415;28;20032;-73
2023/05/23 03:19:55;;;;;;;5.35;2.10;;;;;;;18.36;62.08;101203.31;5063513;28;20032;-73
2023/05/23 03:22:20;;;;;;;2.72;1.80;;;;;;;18.38;62.31;101210.19;5080904;28;20028;-73
2023/05/23 03:24:46;;;;;;;3.50;1.85;;;;;;;18.44;62.80;101216.53;5098879;28;20032;-72
2023/05/23 03:27:11;;;;;;;4.68;2.10;;;;;;;18.39;63.18;101217.28;5080854;28;20020;-73
2023/05/23 03:29:37;;;;;;;3.35;1.90;;;;;;;18.36;63.60;101214.22;5098816;28;20438;-73
2023/05/23 03:32:03;;;;;;;4.32;2.10;;;;;;;18.35;63.61;101213.38;5064178;28;20063;-73
2023/05/23 03:34:29;;;;;;;3.70;2.20;;;;;;;18.30;63.87;101207.81;5081319;28;20031;-72
2023/05/23 03:36:54;;;;;;;4.88;2.50;;;;;;;18.34;63.98;101216.34;5099113;28;20115;-72
2023/05/23 03:39:20;;;;;;;3.72;2.08;;;;;;;18.29;63.94;101207.00;5081445;28;20063;-73
2023/05/23 03:41:46;;;;;;;5.78;2.63;;;;;;;18.17;63.87;101189.03;5080927;28;20032;-72
2023/05/23 03:44:11;;;;;;;6.25;2.45;;;;;;;18.30;63.90;101208.66;5047204;28;20093;-72
2023/05/23 03:46:37;;;;;;;5.45;2.13;;;;;;;18.24;63.78;101195.97;5063386;28;20028;-73
2023/05/23 03:49:02;;;;;;;4.97;2.20;;;;;;;18.30;63.79;101199.66;5062892;28;20032;-72
2023/05/23 03:51:28;;;;;;;8.13;2.38;;;;;;;18.35;63.76;101196.22;5081165;28;20028;-72
2023/05/23 03:53:53;;;;;;;3.97;2.30;;;;;;;18.37;63.79;101194.88;5084838;28;20055;-71
2023/05/23 03:56:18;;;;;;;3.15;2.20;;;;;;;18.41;63.85;101193.38;5047634;28;20039;-72
2023/05/23 03:58:44;;;;;;;5.70;2.30;;;;;;;18.41;63.64;101189.78;5081840;28;20056;-72
2023/05/23 04:01:10;;;;;;;4.57;2.20;;;;;;;18.47;63.71;101186.91;5101780;28;20048;-77
2023/05/23 04:03:35;;;;;;;8.00;2.40;;;;;;;18.48;63.61;101180.41;5084255;28;20027;-73
2023/05/23 04:06:01;;;;;;;4.05;2.33;;;;;;;18.56;63.89;101192.81;5098010;28;20172;-72
2023/05/23 04:08:28;;;;;;;4.15;2.42;;;;;;;18.55;63.98;101189.28;5061311;28;20051;-72
2023/05/23 04:10:53;;;;;;;5.43;2.33;;;;;;;18.41;63.83;101157.09;5095373;28;20085;-72
2023/05/23 04:13:19;;;;;;;4.95;2.22;;;;;;;18.62;63.91;101186.41;5046896;28;20036;-71
2023/05/23 04:15:46;;;;;;;4.95;2.10;;;;;;;18.65;63.64;101185.91;5046930;28;20122;-71
2023/05/23 04:18:13;;;;;;;7.35;2.70;;;;;;;18.72;63.51;101183.91;5096259;28;20024;-70
2023/05/23 04:20:39;;;;;;;3.40;2.30;;;;;;;18.77;63.28;101183.16;5099536;28;20028;-72
2023/05/23 04:23:05;;;;;;;5.03;2.30;;;;;;;18.69;63.18;101170.72;5082018;28;20032;-70
2023/05/23 04:25:30;;;;;;;6.03;2.22;;;;;;;18.84;63.17;101183.84;5081216;28;20119;-71
2023/05/23 04:27:56;;;;;;;3.47;2.22;;;;;;;18.80;62.84;101163.59;5100207;28;20028;-71
2023/05/23 04:30:22;;;;;;;7.65;2.53;;;;;;;18.90;62.66;101171.94;5083191;28;20020;-71
2023/05/23 04:32:47;;;;;;;5.13;2.60;;;;;;;18.97;62.16;101166.34;5083287;28;20395;-72
2023/05/23 04:35:13;;;;;;;6.70;2.38;;;;;;;18.95;61.77;101163.03;5083837;28;20032;-70
2023/05/23 04:37:38;;;;;;;6.55;2.33;;;;;;;19.07;61.58;101169.22;5100354;28;20058;-71
2023/05/23 04:40:08;;;;;;;7.90;2.22;;;;;;;19.18;61.52;101162.91;5102166;28;20032;-71
2023/05/23 04:42:33;;;;;;;8.10;2.50;;;;;;;19.17;61.42;101154.94;5090732;28;20032;-72
2023/05/23 04:45:00;;;;;;;4.28;2.08;;;;;;;19.13;61.63;101153.78;5089777;28;20043;-71
2023/05/23 04:47:27;;;;;;;4.30;2.00;;;;;;;19.14;62.11;101145.38;5066000;28;20020;-69
2023/05/23 04:49:54;;;;;;;5.07;2.30;;;;;;;19.11;62.60;101151.31;5099480;28;20016;-70
2023/05/23 04:52:19;;;;;;;5.30;2.58;;;;;;;19.07;63.36;101143.88;5080576;28;20028;-70
2023/05/23 04:54:47;;;;;;;5.22;2.47;;;;;;;19.07;63.52;101146.59;5080397;28;20016;-70
2023/05/23 04:57:13;;;;;;;10.30;2.60;;;;;;;19.09;63.97;101136.28;5080694;28;20024;-72
2023/05/23 04:59:39;;;;;;;5.20;2.28;;;;;;;19.18;63.95;101132.88;5066067;28;20055;-71
2023/05/23 05:02:05;;;;;;;6.60;2.25;;;;;;;19.24;63.98;101131.06;5084395;28;20047;-72
2023/05/23 05:04:31;;;;;;;3.58;2.40;;;;;;;19.31;64.23;101130.91;5101183;28;20050;-71
2023/05/23 05:06:56;;;;;;;7.15;2.25;;;;;;;19.45;64.18;101130.28;5083981;28;20093;-71
2023/05/23 05:09:24;;;;;;;5.95;2.70;;;;;;;19.36;64.20;101111.88;5101627;28;20031;-71
2023/05/23 05:11:50;;;;;;;5.40;2.30;;;;;;;19.46;64.21;101121.03;5101674;28;20028;-71
2023/05/23 05:14:15;;;;;;;4.97;2.30;;;;;;;19.60;64.10;101126.97;5066782;28;20035;-72
2023/05/23 05:16:42;;;;;;;4.57;2.40;;;;;;;19.66;64.14;101125.16;5101609;28;20024;-73
2023/05/23 05:19:08;;;;;;;3.88;2.10;;;;;;;19.64;64.07;101117.22;5067632;28;20587;-72
2023/05/23 05:21:33;;;;;;;4.45;2.30;;;;;;;19.66;63.75;101115.06;5067361;28;20023;-71
2023/05/23 05:23:58;;;;;;;6.28;2.30;;;;;;;19.69;63.13;101109.09;5050365;28;20406;-71
2023/05/23 05:26:25;;;;;;;5.90;2.17;;;;;;;19.77;63.16;101116.03;5099065;28;20035;-71
2023/05/23 05:28:51;;;;;;;3.60;2.20;;;;;;;19.75;62.95;101129.13;5097548;28;20047;-71
2023/05/23 05:31:17;;;;;;;4.35;2.00;;;;;;;19.68;62.99;101109.34;5048109;28;20036;-71
2023/05/23 05:33:44;;;;;;;4.57;2.30;;;;;;;19.60;62.52;101109.75;5065106;28;20063;-71
2023/05/23 05:36:10;;;;;;;3.47;2.15;;;;;;;19.59;62.58;101128.03;5077248;28;20024;-72
2023/05/23 05:38:36;;;;;;;4.50;2.30;;;;;;;19.64;63.22;101130.06;5077544;28;20030;-71
2023/05/23 05:41:01;;;;;;;2.80;2.20;;;;;;;19.29;63.85;101075.75;5061705;28;20020;-71
2023/05/23 05:43:26;;;;;;;4.40;2.50;;;;;;;19.04;64.35;101079.75;5077922;28;20443;-71
2023/05/23 05:45:52;;;;;;;5.35;2.50;;;;;;;19.30;65.31;101130.06;5060358;28;20326;-71
2023/05/23 05:48:17;;;;;;;4.60;2.40;;;;;;;19.34;65.73;101135.88;5061551;28;20035;-71
2023/05/23 05:50:44;;;;;;;6.65;2.33;;;;;;;19.29;65.97;101125.69;5078120;28;20028;-71
2023/05/23 05:53:11;;;;;;;4.03;2.45;;;;;;;19.25;66.10;101125.34;5079078;28;20039;-71
2023/05/23 05:55:36;;;;;;;5.25;2.35;;;;;;;19.14;66.41;101114.50;5077651;28;20411;-71
2023/05/23 05:58:02;;;;;;;5.25;2.30;;;;;;;18.92;67.51;101122.63;5097289;28;20036;-71
2023/05/23 06:00:28;;;;;;;6.60;2.42;;;;;;;18.97;67.28;101118.09;5101632;28;20052;-72
2023/05/23 06:02:56;;;;;;;7.95;2.40;;;;;;;18.98;67.26;101099.84;5096810;28;20024;-72
2023/05/23 06:05:22;;;;;;;4.57;2.33;;;;;;;18.96;67.96;101126.50;5078655;28;20028;-73
2023/05/23 06:07:49;;;;;;;3.53;2.35;;;;;;;18.90;68.21;101106.50;5095805;28;20077;-71
2023/05/23 06:10:15;;;;;;;5.80;2.63;;;;;;;18.97;68.55;101109.91;5094462;28;20138;-71
2023/05/23 06:12:41;;;;;;;5.75;2.70;;;;;;;19.01;68.25;101107.53;5095452;28;20027;-71
2023/05/23 06:15:08;;;;;;;4.13;2.50;;;;;;;18.97;68.38;101106.34;5077488;28;20051;-71
2023/05/23 06:17:33;;;;;;;7.50;2.70;;;;;;;18.90;68.30;101100.22;5095336;28;20487;-71
2023/05/23 06:19:59;;;;;;;7.32;2.40;;;;;;;18.91;68.41;101121.81;5098912;28;20024;-71
2023/05/23 06:22:24;;;;;;;3.80;2.80;;;;;;;18.89;68.30;101087.69;5077053;28;20032;-71
2023/05/23 06:24:50;;;;;;;3.22;2.17;;;;;;;18.95;68.18;101092.97;5076922;28;20032;-71
2023/05/23 06:27:15;;;;;;;5.35;2.97;;;;;;;18.97;68.83;101099.00;5043020;28;20024;-71
2023/05/23 06:29:40;;;;;;;6.45;2.35;;;;;;;18.94;68.93;101106.81;5076250;28;20403;-71
2023/05/23 06:32:06;;;;;;;9.48;2.55;;;;;;;18.98;68.63;101105.28;5077090;28;20036;-71
2023/05/23 06:34:31;;;;;;;4.63;2.25;;;;;;;19.10;68.86;101110.63;5060237;28;20070;-71
2023/05/23 06:36:57;;;;;;;3.30;2.47;;;;;;;19.17;68.16;101103.09;5060049;28;20020;-71
2023/05/23 06:39:22;;;;;;;3.78;2.25;;;;;;;19.00;67.72;101097.66;5076878;28;20398;-71
2023/05/23 06:41:48;;;;;;;5.13;2.53;;;;;;;18.82;67.59;101082.38;5076625;28;20043;-70
2023/05/23 06:44:14;;;;;;;3.90;2.22;;;;;;;18.52;68.59;101078.03;5077313;28;20032;-71
2023/05/23 06:46:41;;;;;;;5.93;2.70;;;;;;;18.38;69.23;101062.25;5078599;28;20024;-71
2023/05/23 06:49:07;;;;;;;5.35;2.78;;;;;;;18.41;69.60;101086.25;5096034;28;20068;-71
2023/05/23 06:51:32;;;;;;;8.13;2.63;;;;;;;18.61;68.75;101129.41;5076380;28;20070;-71
2023/05/23 06:53:57;;;;;;;8.70;2.70;;;;;;;18.66;68.40;101116.69;5075984;28;20627;-71
2023/05/23 06:56:23;;;;;;;4.22;2.58;;;;;;;18.63;68.10;101056.41;5076139;28;20039;-71
2023/05/23 06:58:48;;;;;;;8.32;2.45;;;;;;;18.58;69.39;101048.16;5094873;28;20024;-71
2023/05/23 07:01:14;;;;;;;4.13;2.47;;;;;;;18.40;70.23;101041.00;5060092;28;20052;-71
2023/05/23 07:03:42;;;;;;;3.72;2.25;;;;;;;18.70;69.37;101055.16;5095458;28;20028;-71
2023/05/23 07:06:07;;;;;;;3.75;2.25;;;;;;;19.00;69.04;101067.66;5094812;28;20032;-71
2023/05/23 07:08:33;;;;;;;5.10;2.53;;;;;;;18.97;69.30;101049.91;5095164;28;20062;-71
2023/05/23 07:10:59;;;;;;;5.78;2.70;;;;;;;19.03;69.65;101124.44;5075568;28;20043;-71
2023/05/23 07:13:24;;;;;;;5.85;2.97;;;;;;;19.12;69.60;101113.97;5075514;28;20032;-71
2023/05/23 07:15:50;;;;;;;9.52;2.50;;;;;;;18.96;69.65;101082.88;5078075;28;20035;-71
2023/05/23 07:18:15;;;;;;;6.07;2.30;;;;;;;19.08;68.87;101091.81;5060173;28;20024;-71
2023/05/23 07:20:40;;;;;;;7.50;2.60;;;;;;;19.19;68.11;101082.69;5076457;28;20039;-71
2023/05/23 07:23:06;;;;;;;3.40;2.30;;;;;;;19.50;67.81;101115.88;5076285;28;20088;-71
2023/05/23 07:25:31;;;;;;;6.72;2.42;;;;;;;19.60;67.45;101102.41;5060050;28;20069;-71
2023/05/23 07:27:57;;;;;;;5.07;2.67;;;;;;;19.64;66.63;101084.47;5076705;28;20038;-72
2023/05/23 07:30:23;;;;;;;10.02;3.10;;;;;;;19.73;65.45;101098.50;5076975;28;20032;-71
2023/05/23 07:32:48;;;;;;;4.15;2.60;;;;;;;19.92;64.86;101113.50;5043054;28;20032;-72
2023/05/23 07:35:15;;;;;;;4.05;2.20;;;;;;;19.95;63.61;101093.88;5094652;28;20059;-71
2023/05/23 07:37:41;;;;;;;3.80;2.53;;;;;;;19.71;64.01;101084.28;5076796;28;20028;-71
2023/05/23 07:40:09;;;;;;;6.40;2.58;;;;;;;19.90;62.61;101095.69;5060347;28;20109;-71
2023/05/23 07:42:36;;;;;;;8.95;2.60;;;;;;;19.76;61.86;101051.56;5076335;28;20491;-71
2023/05/23 07:45:01;;;;;;;9.68;2.90;;;;;;;20.26;61.37;101104.31;5076313;28;20039;-71
2023/05/23 07:47:27;;;;;;;6.00;2.45;;;;;;;20.35;59.92;101111.00;5094738;28;20016;-71
2023/05/23 07:49:52;;;;;;;7.40;2.55;;;;;;;20.33;58.97;101111.25;5060174;28;20056;-71
2023/05/23 07:52:19;;;;;;;8.02;2.38;;;;;;;20.31;58.31;101088.00;5044586;28;20047;-71
2023/05/23 07:54:44;;;;;;;4.47;2.60;;;;;;;20.13;58.36;101070.88;5080741;28;20044;-72
2023/05/23 07:57:10;;;;;;;6.53;2.60;;;;;;;20.30;57.70;101102.75;5098901;28;20041;-71
2023/05/23 07:59:37;;;;;;;7.75;2.90;;;;;;;20.40;57.65;101108.31;5079946;28;20134;-71
2023/05/23 08:02:03;;;;;;;9.07;2.58;;;;;;;20.37;57.11;101103.38;5099162;28;20061;-71
2023/05/23 08:04:28;;;;;;;10.07;3.00;;;;;;;20.25;56.43;101094.47;5080265;28;20119;-71
2023/05/23 08:06:54;;;;;;;8.70;3.00;;;;;;;20.52;55.66;101117.22;5080752;28;20052;-72
2023/05/23 08:09:20;;;;;;;16.02;6.50;;;;;;;20.80;55.79;101123.50;5081588;28;20031;-71
2023/05/23 08:11:46;;;;;;;11.25;2.90;;;;;;;20.85;55.25;101115.34;5081553;28;20028;-72
2023/05/23 08:14:11;;;;;;;19.00;5.45;;;;;;;20.91;55.57;101129.91;5079246;28;20123;-72
2023/05/23 08:16:37;;;;;;;5.95;2.60;;;;;;;20.89;55.17;101105.53;5096881;28;20115;-71
2023/05/23 08:19:03;;;;;;;8.95;3.65;;;;;;;20.79;56.11;101122.66;5064782;28;20523;-71
2023/05/23 08:21:28;;;;;;;7.70;3.60;;;;;;;20.37;58.43;101097.91;5082642;28;20054;-71
2023/05/23 08:23:54;;;;;;;4.38;2.72;;;;;;;20.17;60.48;101113.00;5083092;28;20354;-71
2023/05/23 08:26:20;;;;;;;4.45;2.42;;;;;;;20.14;61.14;101121.69;5080398;28;20382;-71
2023/05/23 08:28:46;;;;;;;4.45;3.00;;;;;;;20.09;61.13;101126.25;5063614;28;20028;-71
2023/05/23 08:31:11;;;;;;;4.57;2.60;;;;;;;19.84;62.48;101108.50;5098328;28;20371;-72
2023/05/23 08:33:38;;;;;;;6.78;2.88;;;;;;;19.86;62.64;101109.03;5081148;28;20487;-71
2023/05/23 08:36:03;;;;;;;6.60;2.90;;;;;;;19.91;62.42;101097.38;5079398;28;20027;-70
2023/05/23 08:38:29;;;;;;;5.03;2.70;;;;;;;19.98;62.22;101110.84;5080486;28;20495;-71
2023/05/23 08:40:55;;;;;;;10.15;2.50;;;;;;;20.01;61.58;101093.94;5080514;28;20042;-72
2023/05/23 08:43:21;;;;;;;6.93;2.50;;;;;;;20.17;59.39;101096.59;5079526;28;20468;-72
2023/05/23 08:45:50;;;;;;;4.50;2.28;;;;;;;20.29;56.88;101101.09;5098209;28;20024;-72
2023/05/23 08:48:18;;;;;;;6.25;2.15;;;;;;;20.12;54.45;101102.00;5079960;28;20028;-71
2023/05/23 08:50:46;;;;;;;3.60;2.00;;;;;;;20.25;51.71;101108.16;5097621;28;20042;-71
2023/05/23 08:53:19;;;;;;;3.83;2.00;;;;;;;20.25;50.18;101083.56;5079937;28;20044;-71
2023/05/23 08:55:45;;;;;;;3.38;2.10;;;;;;;20.21;49.79;101094.19;5078813;28;20469;-72
2023/05/23 08:58:12;;;;;;;3.38;2.15;;;;;;;20.57;48.62;101102.78;5078573;28;20028;-71
2023/05/23 09:00:38;;;;;;;4.55;2.08;;;;;;;20.87;46.68;101104.97;5062895;28;20055;-72
2023/05/23 09:03:04;;;;;;;6.68;2.35;;;;;;;21.07;45.32;101096.09;5097932;28;20036;-71
2023/05/23 09:05:29;;;;;;;2.58;1.92;;;;;;;20.95;44.39;101082.59;5062528;28;20040;-72
2023/05/23 09:07:55;;;;;;;6.65;2.20;;;;;;;21.05;44.63;101099.09;5081534;28;20031;-72
2023/05/23 09:10:21;;;;;;;3.10;1.90;;;;;;;21.25;44.13;101090.19;5086639;28;20042;-72
2023/05/23 09:12:47;;;;;;;6.45;2.30;;;;;;;21.23;43.78;101072.41;5084028;28;20028;-72
2023/05/23 09:15:12;;;;;;;6.13;2.08;;;;;;;21.42;43.58;101094.72;5115638;28;20028;-72
2023/05/23 09:17:39;;;;;;;3.83;2.15;;;;;;;21.42;43.67;101092.81;5081220;28;20032;-72
2023/05/23 09:20:12;;;;;;;5.38;2.20;;;;;;;21.10;43.27;101080.00;5098748;28;20024;-72
2023/05/23 09:22:37;;;;;;;4.47;2.15;;;;;;;20.83;45.97;101084.72;5093216;28;20088;-71
2023/05/23 09:25:04;;;;;;;3.55;2.05;;;;;;;20.64;46.84;101093.28;5062823;28;20032;-72
2023/05/23 09:27:30;;;;;;;5.35;2.30;;;;;;;20.52;48.52;101097.25;5063024;28;20024;-71
2023/05/23 09:29:55;;;;;;;5.55;2.13;;;;;;;20.43;50.84;101091.41;5079912;28;20035;-72
2023/05/23 09:32:21;;;;;;;5.75;2.10;;;;;;;20.44;51.81;101098.53;5097322;28;20046;-72
2023/05/23 09:34:49;;;;;;;4.30;2.40;;;;;;;20.38;50.99;101089.44;5096954;28;20031;-71
2023/05/23 09:37:17;;;;;;;5.18;2.40;;;;;;;20.37;53.03;101084.25;5097099;28;20024;-72
2023/05/23 09:39:47;;;;;;;4.22;2.20;;;;;;;20.35;53.23;101084.47;5096687;28;20050;-72
2023/05/23 09:42:24;;;;;;;6.53;3.00;;;;;;;19.92;54.12;101079.91;5062581;28;20089;-72
2023/05/23 09:44:49;;;;;;;6.50;2.47;;;;;;;19.83;55.21;101086.88;5096398;28;20028;-72
2023/05/23 09:47:16;;;;;;;4.38;2.67;;;;;;;19.70;55.59;101088.94;5077429;28;20714;-71
2023/05/23 09:49:45;;;;;;;6.32;2.70;;;;;;;19.69;57.14;101095.44;5096385;28;20032;-71
2023/05/23 09:52:11;;;;;;;4.25;2.53;;;;;;;20.12;57.18;101104.72;5044877;28;20032;-72
2023/05/23 09:54:37;;;;;;;4.50;2.53;;;;;;;20.49;58.39;101106.75;5061486;28;20115;-72
2023/05/23 09:57:05;;;;;;;6.32;2.83;;;;;;;20.47;62.18;101100.75;5063358;28;20266;-72
2023/05/23 09:59:33;;;;;;;4.15;2.72;;;;;;;20.35;64.98;101113.72;5096925;28;20036;-71
2023/05/23 10:02:01;;;;;;;7.07;2.38;;;;;;;20.22;66.70;101106.75;5082765;28;20032;-72
2023/05/23 10:04:30;;;;;;;3.22;2.20;;;;;;;19.79;71.15;101113.03;5100145;28;20024;-72
2023/05/23 10:06:59;;;;;;;4.20;1.95;;;;;;;19.52;74.06;101100.09;5097110;28;20024;-72
2023/05/23 10:09:31;;;;;;;2.45;1.80;;;;;;;19.05;78.50;101096.94;5078004;28;20024;-72
2023/05/23 10:12:38;;;;;;;3.28;1.98;;;;;;;18.85;80.54;101109.16;5095300;28;20027;-71
2023/05/23 10:15:06;;;;;;;3.58;2.10;;;;;;;18.83;81.86;101105.03;5095139;28;20020;-72
2023/05/23 10:17:50;;;;;;;4.40;2.10;;;;;;;18.78;82.64;101103.88;5076405;28;20058;-72
2023/05/23 10:20:19;;;;;;;3.00;1.90;;;;;;;18.23;85.41;101071.75;5077852;28;20028;-72
2023/05/23 10:22:45;;;;;;;2.90;1.80;;;;;;;18.46;85.07;101111.69;5076792;28;20024;-72
2023/05/23 10:25:12;;;;;;;2.83;2.05;;;;;;;18.66;83.50;101121.31;5059684;28;20024;-71
2023/05/23 10:27:39;;;;;;;2.60;1.60;;;;;;;18.51;84.63;101111.81;5095230;28;20013;-72
2023/05/23 10:30:08;;;;;;;2.55;1.50;;;;;;;18.52;84.74;101131.69;5095211;28;20461;-72
2023/05/23 10:32:34;;;;;;;3.95;1.88;;;;;;;18.39;84.51;101104.75;5094735;28;20024;-71
2023/05/23 10:35:18;;;;;;;3.60;1.90;;;;;;;18.18;87.11;101115.25;5095382;28;20375;-71
2023/05/23 10:38:00;;;;;;;3.50;1.77;;;;;;;17.94;89.43;101108.22;5077367;28;20063;-72
2023/05/23 10:40:29;;;;;;;3.03;1.75;;;;;;;17.95;90.06;101121.59;5075923;28;20063;-72
2023/05/23 10:43:19;;;;;;;3.58;1.90;;;;;;;17.88;90.77;101123.63;5078051;28;20040;-72
2023/05/23 10:45:48;;;;;;;2.78;1.98;;;;;;;17.87;90.05;101096.63;5076908;28;20104;-72
2023/05/23 10:48:27;;;;;;;4.28;2.15;;;;;;;18.18;89.73;101101.63;5084463;28;20031;-72
2023/05/23 10:51:13;;;;;;;3.92;1.88;;;;;;;18.33;88.06;101082.03;5078453;28;20427;-72
2023/05/23 10:53:44;;;;;;;2.38;1.75;;;;;;;18.64;87.34;101110.69;5097871;28;20034;-71
2023/05/23 10:56:18;;;;;;;3.55;1.90;;;;;;;18.52;87.25;101107.19;5098123;28;20027;-72
2023/05/23 10:58:44;;;;;;;;;;;;;;;18.40;87.35;101115.38;5079784;28;20381;-72
2023/05/23 11:01:14;;;;;;;2.95;1.83;;;;;;;18.45;87.77;101112.78;5078673;28;19927;-72
2023/05/23 11:03:46;;;;;;;2.30;1.80;;;;;;;18.35;87.49;101117.22;5081212;28;20028;-72
2023/05/23 11:06:34;;;;;;;4.00;1.88;;;;;;;18.25;87.53;101115.94;5097214;28;20111;-72
2023/05/23 11:09:08;;;;;;;5.55;2.13;;;;;;;18.23;88.51;101109.06;5078479;28;20122;-72
2023/05/23 11:11:50;;;;;;;4.70;2.00;;;;;;;18.42;87.55;101113.25;5100411;28;20027;-72
2023/05/23 11:14:16;;;;;;;4.75;2.10;;;;;;;18.32;87.19;101088.56;5101054;28;20023;-72
2023/05/23 11:16:45;;;;;;;7.38;2.22;;;;;;;18.52;86.60;101108.00;5084317;28;20016;-73
2023/05/23 11:19:20;;;;;;;4.07;2.22;;;;;;;18.59;86.54;101105.13;5082116;28;20020;-73
2023/05/23 11:21:49;;;;;;;4.93;2.17;;;;;;;18.28;87.76;101088.22;5100864;28;20024;-73
2023/05/23 11:24:16;;;;;;;7.75;2.65;;;;;;;18.18;88.24;101100.78;5100641;28;20020;-72